createdAt,value
2023-05-21T00:00:01.443Z,4.10
2023-05-21T00:02:30.474Z,4.18
2023-05-21T00:04:58.685Z,4.03
2023-05-21T00:07:27.176Z,4.40
2023-05-21T00:09:55.520Z,4.13
2023-05-21T00:12:23.730Z,4.00
2023-05-21T00:14:51.961Z,3.93
2023-05-21T00:17:21.477Z,4.40
2023-05-21T00:19:50.310Z,4.00
2023-05-21T00:22:18.522Z,4.30
2023-05-21T00:24:46.861Z,4.27
2023-05-21T00:27:15.313Z,3.70
2023-05-21T00:29:44.421Z,4.13
2023-05-21T00:32:12.890Z,4.20
2023-05-21T00:34:43.107Z,4.17
2023-05-21T00:37:11.320Z,4.10
2023-05-21T00:39:39.461Z,3.77
2023-05-21T00:42:07.610Z,4.37
2023-05-21T00:44:35.821Z,3.97
2023-05-21T00:47:04.286Z,3.53
2023-05-21T00:49:33.212Z,3.93
2023-05-21T00:52:02.730Z,3.93
2023-05-21T00:54:32.323Z,3.90
2023-05-21T00:57:00.560Z,4.10
2023-05-21T00:59:28.718Z,4.40
2023-05-21T01:01:57.044Z,3.77
2023-05-21T01:04:25.655Z,3.80
2023-05-21T01:06:56.285Z,4.10
2023-05-21T01:09:26.094Z,3.90
2023-05-21T01:11:54.693Z,3.97
2023-05-21T01:14:24.078Z,3.80
2023-05-21T01:16:52.606Z,4.30
2023-05-21T01:19:22.553Z,3.73
2023-05-21T01:21:53.774Z,4.37
2023-05-21T01:24:23.495Z,4.40
2023-05-21T01:26:52.347Z,4.03
2023-05-21T01:29:20.871Z,4.00
2023-05-21T01:31:55.312Z,3.97
2023-05-21T01:34:25.828Z,4.03
2023-05-21T01:36:57.425Z,3.77
2023-05-21T01:39:29.933Z,3.97
2023-05-21T01:41:58.762Z,3.93
2023-05-21T01:44:28.818Z,4.53
2023-05-21T01:46:58.336Z,4.30
2023-05-21T01:49:26.665Z,4.60
2023-05-21T01:51:54.969Z,4.13
2023-05-21T01:54:23.751Z,4.20
2023-05-21T01:56:53.702Z,4.33
2023-05-21T01:59:21.903Z,4.47
2023-05-21T02:01:50.132Z,4.40
2023-05-21T02:04:18.414Z,4.30
2023-05-21T02:06:46.893Z,4.10
2023-05-21T02:09:16.274Z,4.70
2023-05-21T02:11:44.426Z,4.53
2023-05-21T02:14:14.396Z,4.47
2023-05-21T02:16:42.628Z,4.60
2023-05-21T02:19:11.523Z,4.50
2023-05-21T02:21:39.793Z,4.40
2023-05-21T02:24:08.420Z,4.63
2023-05-21T02:26:37.376Z,4.80
2023-05-21T02:29:05.613Z,4.43
2023-05-21T02:31:35.162Z,5.93
2023-05-21T02:34:03.434Z,5.17
2023-05-21T02:36:33.253Z,4.47
2023-05-21T02:39:01.776Z,4.57
2023-05-21T02:41:30.048Z,4.80
2023-05-21T02:43:58.254Z,4.57
2023-05-21T02:46:26.520Z,4.80
2023-05-21T02:48:56.270Z,4.83
2023-05-21T02:51:24.525Z,4.37
2023-05-21T02:53:52.691Z,5.10
2023-05-21T02:56:20.858Z,4.67
2023-05-21T02:58:49.097Z,4.70
2023-05-21T03:01:17.384Z,4.77
2023-05-21T03:03:45.788Z,4.63
2023-05-21T03:06:16.371Z,4.73
2023-05-21T03:08:44.611Z,4.90
2023-05-21T03:11:12.834Z,4.87
2023-05-21T03:13:42.663Z,4.93
2023-05-21T03:16:11.000Z,5.07
2023-05-21T03:18:39.223Z,5.47
2023-05-21T03:21:07.588Z,5.07
2023-05-21T03:23:37.414Z,4.90
2023-05-21T03:26:05.674Z,4.90
2023-05-21T03:28:33.869Z,4.83
2023-05-21T03:31:02.084Z,4.87
2023-05-21T03:33:30.329Z,5.50
2023-05-21T03:35:58.521Z,5.00
2023-05-21T03:38:26.751Z,4.37
2023-05-21T03:40:56.499Z,5.33
2023-05-21T03:43:24.753Z,5.23
2023-05-21T03:45:53.016Z,5.20
2023-05-21T03:48:21.211Z,5.40
2023-05-21T03:50:49.473Z,5.27
2023-05-21T03:53:18.115Z,5.27
2023-05-21T03:55:46.306Z,5.03
2023-05-21T03:58:15.839Z,4.73
2023-05-21T04:00:44.024Z,4.70
2023-05-21T04:03:12.365Z,5.63
2023-05-21T04:05:40.882Z,5.20
2023-05-21T04:08:09.101Z,4.73
2023-05-21T04:10:37.530Z,5.20
2023-05-21T04:13:05.741Z,5.07
2023-05-21T04:15:35.908Z,4.80
2023-05-21T04:18:04.711Z,5.57
2023-05-21T04:20:32.999Z,5.30
2023-05-21T04:23:01.222Z,5.33
2023-05-21T04:25:29.416Z,5.23
2023-05-21T04:27:57.613Z,5.20
2023-05-21T04:30:25.801Z,5.40
2023-05-21T04:32:55.720Z,5.60
2023-05-21T04:35:23.948Z,5.37
2023-05-21T04:37:52.157Z,5.03
2023-05-21T04:40:24.250Z,5.43
2023-05-21T04:42:52.613Z,5.17
2023-05-21T04:45:21.120Z,5.03
2023-05-21T04:47:49.401Z,5.20
2023-05-21T04:50:20.362Z,5.53
2023-05-21T04:52:48.599Z,4.83
2023-05-21T04:55:19.101Z,5.60
2023-05-21T04:57:47.329Z,5.20
2023-05-21T05:00:16.523Z,5.33
2023-05-21T05:02:44.962Z,5.43
2023-05-21T05:05:13.182Z,5.17
2023-05-21T05:07:42.698Z,5.30
2023-05-21T05:10:11.029Z,4.87
2023-05-21T05:12:39.245Z,5.20
2023-05-21T05:15:07.816Z,5.00
2023-05-21T05:17:36.098Z,4.87
2023-05-21T05:20:05.102Z,5.27
2023-05-21T05:22:33.315Z,5.37
2023-05-21T05:25:02.873Z,5.07
2023-05-21T05:27:31.123Z,5.40
2023-05-21T05:29:59.352Z,5.50
2023-05-21T05:32:27.605Z,5.40
2023-05-21T05:34:55.844Z,5.40
2023-05-21T05:37:24.042Z,5.13
2023-05-21T05:39:52.209Z,5.03
2023-05-21T05:42:21.773Z,5.43
2023-05-21T05:44:50.006Z,5.40
2023-05-21T05:47:18.258Z,5.00
2023-05-21T05:49:46.449Z,5.18
2023-05-21T05:52:14.685Z,5.20
2023-05-21T05:54:42.896Z,5.57
2023-05-21T05:57:11.069Z,5.07
2023-05-21T05:59:40.839Z,5.43
2023-05-21T06:02:09.138Z,5.40
2023-05-21T06:04:37.364Z,5.33
2023-05-21T06:07:05.719Z,5.60
2023-05-21T06:09:33.889Z,5.00
2023-05-21T06:12:02.074Z,5.00
2023-05-21T06:14:30.250Z,5.20
2023-05-21T06:16:59.757Z,5.27
2023-05-21T06:19:28.057Z,5.17
2023-05-21T06:21:56.290Z,5.47
2023-05-21T06:24:24.519Z,5.50
2023-05-21T06:26:52.780Z,4.90
2023-05-21T06:29:21.746Z,5.10
2023-05-21T06:31:49.978Z,5.70
2023-05-21T06:34:19.560Z,5.37
2023-05-21T06:36:47.700Z,5.30
2023-05-21T06:39:16.285Z,4.72
2023-05-21T06:41:44.507Z,5.70
2023-05-21T06:44:12.702Z,5.50
2023-05-21T06:46:40.893Z,5.00
2023-05-21T06:49:09.131Z,5.07
2023-05-21T06:51:38.678Z,5.22
2023-05-21T06:54:06.896Z,5.60
2023-05-21T06:56:35.090Z,5.47
2023-05-21T06:59:03.274Z,5.80
2023-05-21T07:01:32.495Z,5.70
2023-05-21T07:04:00.784Z,5.72
2023-05-21T07:06:29.014Z,6.00
2023-05-21T07:08:58.597Z,6.35
2023-05-21T07:11:28.891Z,6.00
2023-05-21T07:13:58.564Z,5.80
2023-05-21T07:16:26.752Z,6.00
2023-05-21T07:18:55.125Z,5.95
2023-05-21T07:21:23.552Z,5.97
2023-05-21T07:23:51.772Z,6.20
2023-05-21T07:26:22.065Z,6.55
2023-05-21T07:28:50.283Z,6.53
2023-05-21T07:31:18.693Z,6.40
2023-05-21T07:33:46.903Z,6.15
2023-05-21T07:36:15.129Z,6.70
2023-05-21T07:38:43.400Z,6.78
2023-05-21T07:41:11.606Z,6.20
2023-05-21T07:43:41.168Z,6.15
2023-05-21T07:46:09.445Z,5.88
2023-05-21T07:48:37.631Z,5.97
2023-05-21T07:51:06.200Z,6.20
2023-05-21T07:53:34.384Z,6.88
2023-05-21T07:56:02.598Z,6.07
2023-05-21T07:58:30.969Z,6.73
2023-05-21T08:01:00.709Z,5.95
2023-05-21T08:03:30.934Z,6.22
2023-05-21T08:05:59.424Z,5.97
2023-05-21T08:08:27.689Z,5.87
2023-05-21T08:10:56.148Z,5.88
2023-05-21T08:13:24.371Z,6.50
2023-05-21T08:15:53.338Z,6.00
2023-05-21T08:18:23.806Z,5.67
2023-05-21T08:20:52.226Z,5.60
2023-05-21T08:23:20.608Z,5.47
2023-05-21T08:25:48.823Z,5.90
2023-05-21T08:28:17.114Z,5.30
2023-05-21T08:30:45.337Z,5.93
2023-05-21T08:33:13.994Z,6.32
2023-05-21T08:35:43.618Z,6.15
2023-05-21T08:38:11.855Z,6.33
2023-05-21T08:40:41.385Z,5.95
2023-05-21T08:43:13.715Z,6.40
2023-05-21T08:45:44.007Z,6.33
2023-05-21T08:48:13.197Z,5.82
2023-05-21T08:50:42.166Z,6.28
2023-05-21T08:53:19.741Z,5.90
2023-05-21T08:55:57.242Z,6.10
2023-05-21T08:58:26.195Z,6.33
2023-05-21T09:00:56.074Z,6.30
2023-05-21T09:03:24.793Z,5.83
2023-05-21T09:05:53.493Z,6.07
2023-05-21T09:08:23.610Z,5.85
2023-05-21T09:10:52.411Z,6.28
2023-05-21T09:13:21.225Z,6.15
2023-05-21T09:15:49.824Z,5.90
2023-05-21T09:18:18.055Z,5.95
2023-05-21T09:20:46.330Z,6.43
2023-05-21T09:23:18.675Z,5.25
2023-05-21T09:25:48.707Z,5.75
2023-05-21T09:28:17.628Z,5.70
2023-05-21T09:30:46.702Z,6.13
2023-05-21T09:33:14.922Z,5.80
2023-05-21T09:35:47.427Z,6.28
2023-05-21T09:38:15.709Z,6.80
2023-05-21T09:40:46.503Z,5.53
2023-05-21T09:43:16.946Z,5.78
2023-05-21T09:45:55.341Z,6.20
2023-05-21T09:48:36.501Z,5.78
2023-05-21T09:51:09.977Z,5.85
2023-05-21T09:53:38.219Z,5.80
2023-05-21T09:56:06.790Z,5.80
2023-05-21T09:58:37.266Z,5.82
2023-05-21T10:01:05.930Z,5.30
2023-05-21T10:03:35.330Z,5.05
2023-05-21T10:06:04.015Z,5.75
2023-05-21T10:08:33.383Z,5.10
2023-05-21T10:11:02.404Z,5.65
2023-05-21T10:13:31.805Z,5.28
2023-05-21T10:16:03.826Z,5.20
2023-05-21T10:18:32.640Z,5.97
2023-05-21T10:21:02.680Z,5.07
2023-05-21T10:23:31.624Z,5.40
2023-05-21T10:26:00.529Z,5.38
2023-05-21T10:28:29.913Z,5.07
2023-05-21T10:30:58.221Z,5.10
2023-05-21T10:33:28.607Z,5.30
2023-05-21T10:36:00.202Z,5.50
2023-05-21T10:38:29.416Z,5.25
2023-05-21T10:40:57.751Z,4.95
2023-05-21T10:43:33.083Z,5.90
2023-05-21T10:46:11.567Z,5.70
2023-05-21T10:48:49.269Z,5.05
2023-05-21T10:51:21.149Z,5.88
2023-05-21T10:54:06.275Z,5.30
2023-05-21T10:56:38.270Z,5.30
2023-05-21T10:59:21.842Z,5.18
2023-05-21T11:01:52.749Z,4.82
2023-05-21T11:04:25.079Z,4.82
2023-05-21T11:06:53.347Z,4.72
2023-05-21T11:09:21.593Z,5.93
2023-05-21T11:11:52.248Z,4.20
2023-05-21T11:14:36.255Z,5.07
2023-05-21T11:17:05.177Z,4.10
2023-05-21T11:19:41.772Z,5.07
2023-05-21T11:22:11.418Z,4.45
2023-05-21T11:24:41.241Z,4.25
2023-05-21T11:27:09.753Z,4.47
2023-05-21T11:29:41.845Z,4.18
2023-05-21T11:32:11.021Z,4.10
2023-05-21T11:34:40.980Z,3.92
2023-05-21T11:37:27.619Z,4.10
2023-05-21T11:39:56.404Z,4.00
2023-05-21T11:42:34.693Z,4.25
2023-05-21T11:45:04.017Z,4.50
2023-05-21T11:47:33.122Z,4.25
2023-05-21T11:50:03.414Z,4.65
2023-05-21T11:52:32.909Z,4.22
2023-05-21T11:55:01.606Z,4.38
2023-05-21T11:57:31.840Z,4.82
2023-05-21T12:00:01.285Z,4.40
2023-05-21T12:02:32.750Z,4.97
2023-05-21T12:05:02.541Z,5.05
2023-05-21T12:07:31.328Z,4.65
2023-05-21T12:10:00.080Z,4.15
2023-05-21T12:12:35.608Z,4.35
2023-05-21T12:15:12.487Z,4.10
2023-05-21T12:17:41.115Z,3.88
2023-05-21T12:20:11.486Z,4.07
2023-05-21T12:22:43.853Z,4.13
2023-05-21T12:25:13.076Z,4.30
2023-05-21T12:27:45.104Z,4.47
2023-05-21T12:30:13.440Z,4.28
2023-05-21T12:32:44.003Z,3.85
2023-05-21T12:35:21.919Z,4.00
2023-05-21T12:37:51.573Z,4.68
2023-05-21T12:40:20.013Z,3.63
2023-05-21T12:42:48.250Z,4.47
2023-05-21T12:45:18.460Z,4.10
2023-05-21T12:47:50.279Z,4.63
2023-05-21T12:50:22.700Z,4.10
2023-05-21T12:52:50.955Z,4.47
2023-05-21T12:55:19.329Z,3.80
2023-05-21T12:57:47.805Z,3.78
2023-05-21T13:00:16.108Z,4.10
2023-05-21T13:02:45.822Z,3.88
2023-05-21T13:05:17.693Z,3.38
2023-05-21T13:07:48.239Z,3.58
2023-05-21T13:10:17.233Z,3.60
2023-05-21T13:12:45.949Z,3.55
2023-05-21T13:15:14.213Z,4.28
2023-05-21T13:17:42.521Z,3.60
2023-05-21T13:20:12.212Z,3.95
2023-05-21T13:22:43.195Z,3.88
2023-05-21T13:25:15.628Z,3.80
2023-05-21T13:27:44.217Z,3.67
2023-05-21T13:30:12.653Z,3.58
2023-05-21T13:32:41.343Z,4.25
2023-05-21T13:35:10.203Z,3.70
2023-05-21T13:37:38.482Z,3.42
2023-05-21T13:40:08.057Z,3.72
2023-05-21T13:42:38.410Z,3.55
2023-05-21T13:45:07.092Z,3.67
2023-05-21T13:47:38.460Z,3.85
2023-05-21T13:50:09.089Z,3.88
2023-05-21T13:52:37.539Z,3.40
2023-05-21T13:55:06.045Z,3.83
2023-05-21T13:57:34.278Z,3.90
2023-05-21T14:00:03.917Z,3.95
2023-05-21T14:02:32.137Z,3.97
2023-05-21T14:05:00.417Z,3.55
2023-05-21T14:07:28.612Z,3.83
2023-05-21T14:09:57.070Z,4.28
2023-05-21T14:12:26.687Z,4.05
2023-05-21T14:14:54.915Z,3.70
2023-05-21T14:17:24.609Z,4.05
2023-05-21T14:19:52.849Z,3.80
2023-05-21T14:22:21.004Z,3.72
2023-05-21T14:24:49.236Z,3.60
2023-05-21T14:27:17.504Z,4.38
2023-05-21T14:29:46.166Z,4.65
2023-05-21T14:32:14.451Z,4.20
2023-05-21T14:34:43.965Z,4.43
2023-05-21T14:37:12.173Z,4.35
2023-05-21T14:39:40.342Z,4.40
2023-05-21T14:42:08.561Z,4.00
2023-05-21T14:44:36.942Z,4.03
2023-05-21T14:47:05.437Z,4.65
2023-05-21T14:49:33.687Z,3.97
2023-05-21T14:52:03.235Z,4.07
2023-05-21T14:54:31.525Z,4.78
2023-05-21T14:56:59.696Z,4.32
2023-05-21T14:59:27.926Z,4.00
2023-05-21T15:01:56.176Z,3.60
2023-05-21T15:04:24.383Z,3.70
2023-05-21T15:06:52.613Z,3.20
2023-05-21T15:09:22.175Z,4.85
2023-05-21T15:11:52.591Z,3.70
2023-05-21T15:14:20.909Z,4.00
2023-05-21T15:16:49.137Z,4.22
2023-05-21T15:19:17.546Z,4.00
2023-05-21T15:21:46.043Z,3.83
2023-05-21T15:24:14.234Z,3.60
2023-05-21T15:26:43.779Z,4.18
2023-05-21T15:29:11.962Z,3.70
2023-05-21T15:31:40.429Z,3.60
2023-05-21T15:34:08.784Z,3.83
2023-05-21T15:36:37.507Z,3.55
2023-05-21T15:39:06.149Z,3.55
2023-05-21T15:41:37.264Z,3.40
2023-05-21T15:44:07.118Z,3.97
2023-05-21T15:46:35.381Z,3.60
2023-05-21T15:49:03.691Z,3.70
2023-05-21T15:51:31.873Z,3.47
2023-05-21T15:54:00.126Z,3.60
2023-05-21T15:56:28.752Z,3.65
2023-05-21T15:58:59.889Z,3.80
2023-05-21T16:01:29.781Z,3.95
2023-05-21T16:03:58.166Z,3.60
2023-05-21T16:06:27.770Z,3.70
2023-05-21T16:08:56.016Z,3.60
2023-05-21T16:11:24.200Z,3.53
2023-05-21T16:13:52.510Z,3.58
2023-05-21T16:16:23.141Z,3.30
2023-05-21T16:18:54.420Z,3.45
2023-05-21T16:21:22.648Z,3.47
2023-05-21T16:23:50.819Z,3.95
2023-05-21T16:26:19.146Z,3.80
2023-05-21T16:28:47.381Z,3.95
2023-05-21T16:31:15.729Z,3.97
2023-05-21T16:33:43.934Z,3.60
2023-05-21T16:36:13.488Z,4.00
2023-05-21T16:38:43.516Z,3.97
2023-05-21T16:41:11.781Z,3.08
2023-05-21T16:43:40.031Z,3.33
2023-05-21T16:46:08.310Z,3.50
2023-05-21T16:48:38.415Z,3.60
2023-05-21T16:51:06.653Z,3.90
2023-05-21T16:53:36.241Z,3.47
2023-05-21T16:56:04.562Z,3.22
2023-05-21T16:58:34.314Z,3.30
2023-05-21T17:01:02.506Z,3.40
2023-05-21T17:03:32.797Z,3.47
2023-05-21T17:06:01.227Z,3.50
2023-05-21T17:08:29.382Z,3.20
2023-05-21T17:10:58.925Z,3.28
2023-05-21T17:13:27.134Z,3.63
2023-05-21T17:15:55.366Z,3.58
2023-05-21T17:18:23.620Z,3.35
2023-05-21T17:20:51.840Z,3.25
2023-05-21T17:23:20.100Z,3.20
2023-05-21T17:25:48.350Z,3.83
2023-05-21T17:28:17.913Z,3.35
2023-05-21T17:30:48.752Z,3.28
2023-05-21T17:33:17.769Z,3.60
2023-05-21T17:35:45.953Z,3.63
2023-05-21T17:38:14.203Z,3.53
2023-05-21T17:40:42.420Z,3.70
2023-05-21T17:43:10.652Z,4.00
2023-05-21T17:45:40.399Z,3.85
2023-05-21T17:48:08.752Z,3.80
2023-05-21T17:50:36.990Z,3.83
2023-05-21T17:53:05.353Z,3.47
2023-05-21T17:55:33.531Z,3.50
2023-05-21T17:58:01.790Z,4.53
2023-05-21T18:00:32.101Z,4.50
2023-05-21T18:03:01.894Z,4.60
2023-05-21T18:05:30.150Z,3.63
2023-05-21T18:07:58.334Z,3.70
2023-05-21T18:10:26.553Z,4.00
2023-05-21T18:12:54.834Z,3.80
2023-05-21T18:15:23.156Z,3.40
2023-05-21T18:17:51.349Z,3.63
2023-05-21T18:20:21.057Z,3.67
2023-05-21T18:22:49.250Z,4.13
2023-05-21T18:25:17.434Z,3.70
2023-05-21T18:27:46.218Z,4.68
2023-05-21T18:30:14.814Z,3.88
2023-05-21T18:32:42.977Z,4.47
2023-05-21T18:35:13.693Z,4.05
2023-05-21T18:37:46.634Z,3.67
2023-05-21T18:40:15.134Z,4.20
2023-05-21T18:42:43.335Z,3.50
2023-05-21T18:45:12.919Z,4.72
2023-05-21T18:47:42.882Z,4.35
2023-05-21T18:50:13.601Z,4.47
2023-05-21T18:52:41.823Z,3.97
2023-05-21T18:55:11.850Z,4.10
2023-05-21T18:57:40.933Z,3.70
2023-05-21T19:00:10.026Z,4.35
2023-05-21T19:02:38.360Z,4.20
2023-05-21T19:05:07.115Z,4.22
2023-05-21T19:07:36.210Z,4.60
2023-05-21T19:10:04.461Z,4.47
2023-05-21T19:12:36.059Z,4.40
2023-05-21T19:15:04.332Z,4.60
2023-05-21T19:17:33.446Z,4.25
2023-05-21T19:20:01.744Z,4.32
2023-05-21T19:22:30.382Z,4.50
2023-05-21T19:24:58.983Z,4.67
2023-05-21T19:27:29.032Z,4.50
2023-05-21T19:29:58.691Z,5.30
2023-05-21T19:32:26.916Z,4.93
2023-05-21T19:34:57.337Z,4.37
2023-05-21T19:37:26.040Z,4.82
2023-05-21T19:39:54.215Z,5.03
2023-05-21T19:42:22.418Z,5.85
2023-05-21T19:44:50.577Z,4.93
2023-05-21T19:47:20.126Z,5.38
2023-05-21T19:49:48.331Z,5.22
2023-05-21T19:52:16.588Z,5.20
2023-05-21T19:54:44.800Z,4.73
2023-05-21T19:57:13.429Z,5.28
2023-05-21T19:59:41.685Z,6.07
2023-05-21T20:02:13.285Z,5.53
2023-05-21T20:04:42.834Z,5.13
2023-05-21T20:07:11.188Z,5.83
2023-05-21T20:09:39.957Z,5.83
2023-05-21T20:12:08.599Z,5.67
2023-05-21T20:14:36.964Z,6.03
2023-05-21T20:17:06.941Z,6.13
2023-05-21T20:19:37.686Z,5.70
2023-05-21T20:22:07.558Z,6.13
2023-05-21T20:24:35.783Z,6.20
2023-05-21T20:27:04.167Z,6.47
2023-05-21T20:29:32.538Z,6.40
2023-05-21T20:32:00.757Z,6.10
2023-05-21T20:34:29.724Z,6.43
2023-05-21T20:36:58.298Z,6.47
2023-05-21T20:39:29.428Z,6.90
2023-05-21T20:41:58.198Z,7.03
2023-05-21T20:44:27.505Z,6.75
2023-05-21T20:46:55.838Z,6.57
2023-05-21T20:49:25.836Z,7.33
2023-05-21T20:51:54.228Z,6.67
2023-05-21T20:54:23.177Z,6.53
2023-05-21T20:56:54.743Z,6.57
2023-05-21T20:59:22.975Z,6.53
2023-05-21T21:01:52.541Z,6.10
2023-05-21T21:04:20.861Z,6.70
2023-05-21T21:06:50.247Z,6.23
2023-05-21T21:09:18.939Z,6.10
2023-05-21T21:11:47.184Z,5.93
2023-05-21T21:14:16.863Z,6.13
2023-05-21T21:16:45.112Z,6.57
2023-05-21T21:19:13.429Z,6.40
2023-05-21T21:21:41.870Z,6.03
2023-05-21T21:24:10.245Z,6.53
2023-05-21T21:26:38.916Z,6.87
2023-05-21T21:29:07.112Z,7.90
2023-05-21T21:31:36.703Z,6.50
2023-05-21T21:34:04.911Z,6.67
2023-05-21T21:36:33.273Z,6.20
2023-05-21T21:39:02.584Z,7.00
2023-05-21T21:41:30.975Z,6.20
2023-05-21T21:43:59.201Z,7.23
2023-05-21T21:46:27.519Z,7.57
2023-05-21T21:48:57.185Z,7.27
2023-05-21T21:51:25.401Z,7.87
2023-05-21T21:53:53.618Z,8.13
2023-05-21T21:56:22.109Z,7.47
2023-05-21T21:58:50.279Z,7.93
2023-05-21T22:01:19.099Z,7.37
2023-05-21T22:03:47.391Z,7.90
2023-05-21T22:06:17.104Z,7.87
2023-05-21T22:08:45.464Z,8.13
2023-05-21T22:11:13.786Z,7.43
2023-05-21T22:13:42.541Z,7.87
2023-05-21T22:16:11.707Z,7.40
2023-05-21T22:18:41.919Z,8.53
2023-05-21T22:21:11.019Z,8.03
2023-05-21T22:23:40.869Z,7.63
2023-05-21T22:26:09.122Z,7.90
2023-05-21T22:28:37.540Z,7.40
2023-05-21T22:31:06.314Z,8.33
2023-05-21T22:33:34.561Z,8.73
2023-05-21T22:36:02.784Z,7.20
2023-05-21T22:38:31.091Z,8.13
2023-05-21T22:41:00.609Z,8.30
2023-05-21T22:43:28.903Z,8.10
2023-05-21T22:45:57.228Z,7.90
2023-05-21T22:48:26.268Z,7.63
2023-05-21T22:50:54.860Z,8.17
2023-05-21T22:53:23.504Z,7.90
2023-05-21T22:55:51.758Z,7.93
2023-05-21T22:58:21.285Z,8.27
2023-05-21T23:00:49.531Z,8.43
2023-05-21T23:03:17.877Z,8.03
2023-05-21T23:05:46.314Z,8.30
2023-05-21T23:08:14.746Z,8.57
2023-05-21T23:10:43.084Z,8.20
2023-05-21T23:13:12.797Z,8.77
2023-05-21T23:15:43.849Z,8.57
2023-05-21T23:18:12.503Z,8.57
2023-05-21T23:20:41.659Z,8.50
2023-05-21T23:23:10.577Z,9.13
2023-05-21T23:25:38.922Z,8.80
2023-05-21T23:28:07.314Z,8.70
2023-05-21T23:30:35.580Z,8.63
2023-05-21T23:33:05.646Z,9.00
2023-05-21T23:35:33.881Z,8.97
2023-05-21T23:38:02.109Z,9.57
2023-05-21T23:40:30.339Z,9.30
2023-05-21T23:42:58.625Z,9.77
2023-05-21T23:45:27.473Z,9.67
2023-05-21T23:47:55.702Z,9.50
2023-05-21T23:50:26.156Z,9.40
2023-05-21T23:52:54.573Z,10.07
2023-05-21T23:55:22.780Z,9.43
2023-05-21T23:57:51.024Z,10.30
